Time;durP1;ratioP1;P1;durP2;ratioP2;P2;SDS_P1;SDS_P2;PMS_P1;PMS_P2;Temp;Humidity;BMP_temperature;BMP_pressure;BME280_temperature;BME280_humidity;BME280_pressure;Samples;Min_cycle;Max_cycle;Signal;HPM_P1;HPM_P2
2023/02/02 00:01:50;;;;;;;13.10;7.90;;;;;;;-1.10;100.00;99732.79;105038;1262;66883;-63
2023/02/02 00:04:24;;;;;;;12.40;7.70;;;;;;;-1.11;100.00;99732.88;104910;1261;72841;-61
2023/02/02 00:06:53;;;;;;;12.00;7.30;;;;;;;-1.13;100.00;99731.33;104650;1261;62591;-60
2023/02/02 00:09:22;;;;;;;12.30;6.80;;;;;;;-1.16;100.00;99728.35;104854;1260;60844;-60
2023/02/02 00:11:50;;;;;;;13.10;7.90;;;;;;;-1.16;100.00;99728.50;104949;1260;73198;-62
2023/02/02 00:14:19;;;;;;;14.00;8.50;;;;;;;-1.26;100.00;99729.27;104919;1261;67641;-61
2023/02/02 00:16:49;;;;;;;12.70;8.10;;;;;;;-1.29;100.00;99729.70;104975;1261;74208;-63
2023/02/02 00:19:20;;;;;;;13.30;7.80;;;;;;;-1.32;100.00;99730.89;104968;1265;62807;-61
2023/02/02 00:21:48;;;;;;;13.50;8.30;;;;;;;-1.35;100.00;99733.06;104956;1260;61059;-61
2023/02/02 00:24:17;;;;;;;14.00;9.10;;;;;;;-1.41;100.00;99731.27;104848;1264;75379;-61
2023/02/02 00:26:48;;;;;;;13.60;8.30;;;;;;;-1.43;100.00;99731.85;105045;1264;68138;-63
2023/02/02 00:29:19;;;;;;;11.80;8.20;;;;;;;-1.48;100.00;99735.55;105043;1260;74161;-63
2023/02/02 00:31:48;;;;;;;13.90;8.80;;;;;;;-1.49;100.00;99733.96;104812;1265;62800;-60
2023/02/02 00:34:18;;;;;;;12.00;8.20;;;;;;;-1.51;100.00;99730.56;104952;1264;60444;-60
2023/02/02 00:36:47;;;;;;;11.10;7.00;;;;;;;-1.54;100.00;99729.94;104892;1264;73931;-61
2023/02/02 00:39:21;;;;;;;14.00;7.50;;;;;;;-1.58;100.00;99733.80;105060;1260;67410;-63
2023/02/02 00:41:50;;;;;;;11.40;7.60;;;;;;;-1.61;100.00;99733.04;104860;1261;73407;-61
2023/02/02 00:47:08;;;;;;;12.60;8.30;;;;;;;-1.65;100.00;99731.14;104953;1261;60998;-61
2023/02/02 00:49:37;;;;;;;12.10;7.80;;;;;;;-1.65;100.00;99732.70;105184;1261;74569;-63
2023/02/02 00:52:06;;;;;;;12.00;7.80;;;;;;;-1.67;100.00;99734.15;104951;1265;67613;-61
2023/02/02 00:54:36;;;;;;;12.80;8.00;;;;;;;-1.69;100.00;99734.15;104874;1260;73027;-60
2023/02/02 00:57:05;;;;;;;9.80;6.80;;;;;;;-1.71;100.00;99736.68;104897;1265;60483;-60
2023/02/02 00:59:34;;;;;;;9.90;6.60;;;;;;;-1.74;100.00;99735.71;105003;1264;60994;-61
2023/02/02 01:02:02;;;;;;;12.10;8.00;;;;;;;-1.77;100.00;99735.30;104905;1260;75337;-61
2023/02/02 01:04:32;;;;;;;9.40;6.20;;;;;;;-1.81;100.00;99730.95;104868;1264;67699;-62
2023/02/02 01:07:00;;;;;;;12.40;7.30;;;;;;;-1.82;100.00;99732.09;104908;1261;74161;-63
2023/02/02 01:09:31;;;;;;;13.60;7.50;;;;;;;-1.83;100.00;99728.08;104969;1261;61092;-61
2023/02/02 01:12:04;;;;;;;11.90;7.40;;;;;;;-1.83;100.00;99726.99;104815;1265;60782;-61
2023/02/02 01:14:35;;;;;;;14.00;9.30;;;;;;;-1.85;100.00;99724.77;104841;1261;74656;-61
2023/02/02 01:17:04;;;;;;;14.10;8.80;;;;;;;-1.87;100.00;99723.27;105162;1264;67806;-61
2023/02/02 01:19:32;;;;;;;14.30;9.20;;;;;;;-1.91;100.00;99724.75;104619;1264;72237;-61
2023/02/02 01:22:01;;;;;;;15.70;9.40;;;;;;;-1.94;100.00;99721.41;104969;1266;60639;-61
2023/02/02 01:24:31;;;;;;;17.90;9.90;;;;;;;-1.97;100.00;99724.36;104845;1260;61609;-61
2023/02/02 01:27:00;;;;;;;18.60;11.00;;;;;;;-2.03;100.00;99725.31;105169;1261;74868;-62
2023/02/02 01:29:29;;;;;;;17.50;10.00;;;;;;;-2.06;100.00;99726.73;105210;1260;68078;-61
2023/02/02 01:31:58;;;;;;;19.30;10.20;;;;;;;-2.11;100.00;99725.95;105271;1261;74077;-60
2023/02/02 01:34:26;;;;;;;14.20;8.80;;;;;;;-2.17;100.00;99733.02;105357;1260;61168;-60
2023/02/02 01:36:55;;;;;;;17.60;9.90;;;;;;;-2.21;100.00;99734.67;105543;1260;62607;-60
2023/02/02 01:39:24;;;;;;;18.90;11.00;;;;;;;-2.26;100.00;99737.44;105267;1264;75882;-61
2023/02/02 01:41:53;;;;;;;15.90;8.80;;;;;;;-2.31;100.00;99739.48;105188;1260;68600;-60
2023/02/02 01:44:59;;;;;;;15.50;7.70;;;;;;;-2.34;100.00;99744.30;105272;1261;73240;-60
2023/02/02 01:47:36;;;;;;;18.80;9.70;;;;;;;-2.36;100.00;99742.09;105212;1261;61036;-62
2023/02/02 01:50:05;;;;;;;16.70;9.70;;;;;;;-2.39;100.00;99746.36;105063;1266;60843;-61
2023/02/02 01:52:34;;;;;;;18.20;10.00;;;;;;;-2.42;100.00;99744.38;105220;1262;75313;-60
2023/02/02 01:55:07;;;;;;;13.90;8.20;;;;;;;-2.43;100.00;99750.40;105123;1265;68578;-63
2023/02/02 01:57:39;;;;;;;18.10;10.20;;;;;;;-2.43;100.00;99746.36;104979;1260;73902;-63
2023/02/02 02:00:10;;;;;;;17.50;10.50;;;;;;;-2.43;100.00;99744.80;105146;1260;61180;-60
2023/02/02 02:02:47;;;;;;;19.10;10.50;;;;;;;-2.43;100.00;99738.84;105408;1264;62084;-61
2023/02/02 02:05:32;;;;;;;16.80;8.80;;;;;;;-2.43;100.00;99737.85;105425;1264;75498;-62
2023/02/02 02:08:12;;;;;;;16.30;8.80;;;;;;;-2.46;100.00;99737.17;105226;1261;68502;-62
2023/02/02 02:10:41;;;;;;;14.10;8.40;;;;;;;-2.48;100.00;99734.45;104975;1265;74186;-63
2023/02/02 02:13:09;;;;;;;14.50;8.40;;;;;;;-2.49;100.00;99737.95;104960;1264;61074;-62
2023/02/02 02:19:13;;;;;;;17.20;9.10;;;;;;;-2.47;100.00;99740.97;104971;1261;74501;-64
2023/02/02 02:28:18;;;;;;;14.70;8.40;;;;;;;-2.51;100.00;99751.34;104858;1260;61501;-60
2023/02/02 02:30:56;;;;;;;15.90;8.40;;;;;;;-2.52;100.00;99752.64;104988;1260;61884;-60
2023/02/02 02:33:41;;;;;;;16.40;8.20;;;;;;;-2.54;100.00;99758.85;104979;1261;75656;-60
2023/02/02 02:36:19;;;;;;;15.80;8.80;;;;;;;-2.54;100.00;99759.73;104759;1265;67713;-61
2023/02/02 02:39:11;;;;;;;17.80;9.90;;;;;;;-2.54;100.00;99762.81;105054;1260;74251;-61
2023/02/02 02:41:45;;;;;;;15.90;8.40;;;;;;;-2.55;100.00;99758.28;104829;1261;62987;-61
2023/02/02 02:44:15;;;;;;;15.00;8.40;;;;;;;-2.55;100.00;99758.91;104797;1260;60862;-60
2023/02/02 02:46:43;;;;;;;16.20;9.40;;;;;;;-2.55;100.00;99761.80;104837;1265;74207;-60
2023/02/02 02:49:12;;;;;;;19.00;10.60;;;;;;;-2.57;100.00;99762.84;104774;1263;68672;-61
2023/02/02 02:51:47;;;;;;;20.20;11.20;;;;;;;-2.57;100.00;99764.57;104890;1261;73145;-61
2023/02/02 02:54:39;;;;;;;25.50;12.80;;;;;;;-2.58;100.00;99765.27;104954;1261;61775;-63
2023/02/02 02:57:23;;;;;;;21.70;11.50;;;;;;;-2.58;100.00;99766.00;104931;1261;61597;-61
2023/02/02 03:00:17;;;;;;;26.40;15.20;;;;;;;-2.61;100.00;99764.63;104770;1265;73742;-61
2023/02/02 03:02:58;;;;;;;21.40;11.60;;;;;;;-2.60;100.00;99763.77;105192;1261;66810;-61
2023/02/02 03:05:42;;;;;;;27.00;14.60;;;;;;;-2.61;100.00;99762.48;104867;1264;73202;-60
2023/02/02 03:08:12;;;;;;;28.20;14.90;;;;;;;-2.61;100.00;99764.66;104725;1264;62212;-61
2023/02/02 03:10:42;;;;;;;53.20;23.70;;;;;;;-2.62;100.00;99767.13;105073;1260;61215;-61
2023/02/02 03:13:11;;;;;;;32.30;15.50;;;;;;;-2.61;100.00;99771.49;104940;1260;75054;-62
2023/02/02 03:15:41;;;;;;;50.20;23.50;;;;;;;-2.59;100.00;99770.66;104929;1262;67766;-62
2023/02/02 03:18:13;;;;;;;42.80;22.30;;;;;;;-2.58;100.00;99770.59;105046;1264;74322;-62
2023/02/02 03:20:42;;;;;;;27.60;15.40;;;;;;;-2.59;100.00;99775.58;104901;1267;61710;-60
2023/02/02 03:23:11;;;;;;;27.30;14.00;;;;;;;-2.59;100.00;99776.58;104997;1260;61818;-61
2023/02/02 03:25:39;;;;;;;23.30;12.10;;;;;;;-2.60;100.00;99779.76;105176;1264;75184;-61
2023/02/02 03:28:08;;;;;;;24.90;13.00;;;;;;;-2.63;100.00;99778.90;104947;1261;68260;-62
2023/02/02 03:30:37;;;;;;;27.40;13.70;;;;;;;-2.64;100.00;99782.76;104781;1262;73005;-61
2023/02/02 03:33:06;;;;;;;30.50;16.50;;;;;;;-2.66;100.00;99788.86;104894;1262;60502;-59
2023/02/02 03:35:35;;;;;;;32.80;19.00;;;;;;;-2.68;100.00;99789.48;104889;1265;62182;-59
2023/02/02 03:38:04;;;;;;;25.40;12.80;;;;;;;-2.71;100.00;99791.21;104956;1261;74831;-59
2023/02/02 03:40:32;;;;;;;29.50;15.20;;;;;;;-2.73;100.00;99789.96;105002;1261;68794;-62
2023/02/02 03:43:01;;;;;;;30.40;16.50;;;;;;;-2.74;100.00;99787.54;104982;1264;74419;-61
2023/02/02 03:45:31;;;;;;;34.50;18.30;;;;;;;-2.74;100.00;99792.13;104889;1264;60529;-62
2023/02/02 03:47:59;;;;;;;26.90;14.70;;;;;;;-2.74;100.00;99794.96;104679;1262;60571;-63
2023/02/02 03:50:28;;;;;;;26.20;13.10;;;;;;;-2.74;100.00;99797.69;104868;1260;75286;-64
2023/02/02 03:52:56;;;;;;;26.90;13.90;;;;;;;-2.74;100.00;99800.80;104926;1261;68842;-64
2023/02/02 03:55:25;;;;;;;24.00;12.00;;;;;;;-2.73;100.00;99805.11;105004;1262;74128;-62
2023/02/02 03:57:53;;;;;;;26.30;13.60;;;;;;;-2.71;100.00;99811.97;104934;1260;60908;-62
2023/02/02 04:00:22;;;;;;;25.80;13.10;;;;;;;-2.70;100.00;99813.05;105067;1260;61392;-64
2023/02/02 04:02:50;;;;;;;27.90;13.70;;;;;;;-2.70;100.00;99816.14;105015;1264;75238;-63
2023/02/02 04:05:19;;;;;;;28.80;14.20;;;;;;;-2.71;100.00;99817.74;105035;1260;68718;-63
2023/02/02 04:07:48;;;;;;;24.10;13.90;;;;;;;-2.71;100.00;99816.05;105169;1264;73069;-62
2023/02/02 04:10:17;;;;;;;22.30;12.00;;;;;;;-2.71;100.00;99815.73;105197;1260;60362;-59
2023/02/02 04:12:46;;;;;;;25.90;13.90;;;;;;;-2.71;100.00;99813.69;105124;1262;60633;-64
2023/02/02 04:15:15;;;;;;;24.00;12.70;;;;;;;-2.70;100.00;99816.64;105119;1261;74314;-64
2023/02/02 04:17:43;;;;;;;25.80;13.60;;;;;;;-2.70;100.00;99815.64;105066;1262;68602;-62
2023/02/02 04:20:12;;;;;;;27.90;15.20;;;;;;;-2.71;100.00;99810.90;105055;1263;73154;-60
2023/02/02 04:22:41;;;;;;;20.40;11.90;;;;;;;-2.68;100.00;99809.09;104986;1265;61148;-62
2023/02/02 04:25:09;;;;;;;25.20;12.40;;;;;;;-2.65;100.00;99810.23;105133;1261;61864;-62
2023/02/02 04:27:38;;;;;;;19.30;10.90;;;;;;;-2.64;100.00;99815.07;105297;1264;75343;-60
2023/02/02 04:30:08;;;;;;;23.50;13.30;;;;;;;-2.65;100.00;99810.70;105044;1261;68158;-61
2023/02/02 04:32:36;;;;;;;25.50;12.00;;;;;;;-2.64;100.00;99813.38;104956;1260;73850;-62
2023/02/02 04:35:05;;;;;;;27.60;13.20;;;;;;;-2.63;100.00;99818.41;105033;1264;61725;-62
2023/02/02 04:37:34;;;;;;;23.50;12.30;;;;;;;-2.61;100.00;99824.02;104874;1264;60622;-60
2023/02/02 04:40:03;;;;;;;21.70;12.00;;;;;;;-2.61;100.00;99829.11;105130;1264;75249;-61
2023/02/02 04:42:33;;;;;;;315.90;191.00;;;;;;;-2.61;100.00;99829.45;104829;1260;68430;-61
2023/02/02 04:45:02;;;;;;;782.90;497.60;;;;;;;-2.60;100.00;99830.27;105027;1264;73372;-61
2023/02/02 04:47:30;;;;;;;307.20;183.70;;;;;;;-2.60;100.00;99830.20;104949;1260;61991;-61
2023/02/02 04:49:59;;;;;;;120.30;80.20;;;;;;;-2.60;100.00;99832.48;105001;1264;60766;-62
2023/02/02 04:52:28;;;;;;;158.80;117.90;;;;;;;-2.60;100.00;99832.30;104968;1261;73371;-60
2023/02/02 04:54:57;;;;;;;45.80;30.60;;;;;;;-2.59;100.00;99834.77;104915;1264;68525;-62
2023/02/02 04:57:26;;;;;;;72.50;54.50;;;;;;;-2.57;100.00;99837.03;104936;1264;73947;-62
2023/02/02 04:59:55;;;;;;;35.20;21.80;;;;;;;-2.55;100.00;99837.35;104910;1260;63047;-62
2023/02/02 05:02:24;;;;;;;25.30;15.50;;;;;;;-2.53;100.00;99837.94;104714;1260;61040;-62
2023/02/02 05:04:52;;;;;;;39.70;20.80;;;;;;;-2.52;100.00;99841.72;104891;1261;75098;-62
2023/02/02 05:07:21;;;;;;;35.60;24.00;;;;;;;-2.47;100.00;99846.85;104899;1260;68916;-63
2023/02/02 05:09:50;;;;;;;35.80;22.90;;;;;;;-2.44;100.00;99854.11;105228;1264;74058;-63
2023/02/02 05:12:21;;;;;;;;;;;;;;;-2.40;100.00;99857.23;104529;1264;62035;-67
2023/02/02 05:14:51;;;;;;;40.50;21.40;;;;;;;-2.35;100.00;99855.18;104815;1264;60667;-64
2023/02/02 05:17:20;;;;;;;51.80;25.40;;;;;;;-2.32;100.00;99862.91;104875;1261;75266;-62
2023/02/02 05:19:48;;;;;;;32.20;20.00;;;;;;;-2.28;100.00;99868.89;105269;1260;68693;-62
2023/02/02 05:22:17;;;;;;;45.50;24.70;;;;;;;-2.22;100.00;99866.95;104516;1261;72492;-62
2023/02/02 05:24:46;;;;;;;61.80;32.00;;;;;;;-2.15;100.00;99867.36;104902;1264;60557;-64
2023/02/02 05:27:14;;;;;;;43.40;25.60;;;;;;;-2.08;100.00;99863.60;104901;1261;60892;-63
2023/02/02 05:29:43;;;;;;;46.40;27.10;;;;;;;-2.00;100.00;99867.42;104951;1260;74475;-63
2023/02/02 05:32:11;;;;;;;45.30;24.20;;;;;;;-1.95;100.00;99871.33;105234;1261;67789;-63
2023/02/02 05:34:41;;;;;;;29.10;18.70;;;;;;;-1.90;100.00;99872.30;105284;1264;73134;-63
2023/02/02 05:37:10;;;;;;;25.30;15.20;;;;;;;-1.87;100.00;99872.13;105329;1262;60450;-63
2023/02/02 05:39:39;;;;;;;23.50;13.80;;;;;;;-1.84;100.00;99868.84;105123;1263;61055;-63
2023/02/02 05:42:08;;;;;;;26.70;15.30;;;;;;;-1.83;100.00;99872.00;105406;1260;75369;-64
2023/02/02 05:44:38;;;;;;;52.60;22.60;;;;;;;-1.81;100.00;99874.57;105217;1264;67359;-64
2023/02/02 05:47:08;;;;;;;31.00;16.50;;;;;;;-1.79;100.00;99878.66;105050;1261;72898;-64
2023/02/02 05:49:36;;;;;;;30.80;19.50;;;;;;;-1.77;100.00;99878.15;105003;1264;60897;-63
2023/02/02 05:52:05;;;;;;;25.70;15.60;;;;;;;-1.77;100.00;99878.84;105453;1262;61296;-63
2023/02/02 05:54:34;;;;;;;35.40;23.90;;;;;;;-1.75;100.00;99876.84;105242;1264;74864;-65
2023/02/02 05:57:02;;;;;;;30.80;19.90;;;;;;;-1.74;100.00;99881.36;105370;1260;67594;-63
2023/02/02 05:59:33;;;;;;;21.10;14.10;;;;;;;-1.72;100.00;99883.05;105115;1261;73354;-64
2023/02/02 06:02:01;;;;;;;22.50;12.40;;;;;;;-1.68;100.00;99880.92;105542;1262;62749;-62
2023/02/02 06:04:30;;;;;;;20.30;11.90;;;;;;;-1.64;100.00;99884.41;105225;1261;60438;-65
2023/02/02 06:06:59;;;;;;;21.80;12.30;;;;;;;-1.62;100.00;99884.59;105473;1261;74774;-63
2023/02/02 06:09:27;;;;;;;22.10;11.90;;;;;;;-1.60;100.00;99885.14;105103;1261;68376;-65
2023/02/02 06:11:56;;;;;;;24.90;12.90;;;;;;;-1.60;100.00;99882.52;105488;1261;73979;-64
2023/02/02 06:14:25;;;;;;;30.40;17.80;;;;;;;-1.58;100.00;99885.29;104944;1264;61730;-64
2023/02/02 06:16:53;;;;;;;24.30;13.10;;;;;;;-1.55;100.00;99882.87;105133;1260;61914;-65
2023/02/02 06:19:22;;;;;;;29.50;16.90;;;;;;;-1.49;100.00;99883.92;105367;1264;75160;-65
2023/02/02 06:21:50;;;;;;;28.50;15.10;;;;;;;-1.46;100.00;99886.90;104882;1265;67546;-64
2023/02/02 06:24:20;;;;;;;26.50;13.70;;;;;;;-1.40;100.00;99885.51;104848;1264;73126;-66
2023/02/02 06:26:48;;;;;;;19.50;11.30;;;;;;;-1.38;100.00;99886.16;104948;1264;61454;-68
2023/02/02 06:29:17;;;;;;;21.90;13.30;;;;;;;-1.34;100.00;99890.97;105178;1261;60640;-66
2023/02/02 06:31:46;;;;;;;23.30;12.00;;;;;;;-1.28;100.00;99892.59;105318;1261;75597;-68
2023/02/02 06:34:14;;;;;;;21.70;12.80;;;;;;;-1.21;100.00;99895.25;105222;1264;68676;-64
2023/02/02 06:36:43;;;;;;;19.20;11.50;;;;;;;-1.14;100.00;99894.06;105205;1261;73941;-64
2023/02/02 06:39:12;;;;;;;22.00;12.50;;;;;;;-1.08;100.00;99894.59;105291;1260;61183;-64
2023/02/02 06:41:40;;;;;;;22.80;13.60;;;;;;;-1.03;100.00;99892.71;105167;1261;61007;-62
2023/02/02 06:44:09;;;;;;;20.10;11.70;;;;;;;-0.98;100.00;99888.38;105238;1264;73530;-65
2023/02/02 06:46:38;;;;;;;17.80;11.40;;;;;;;-0.92;100.00;99890.84;104875;1262;67255;-64
2023/02/02 06:49:07;;;;;;;18.50;11.50;;;;;;;-0.88;100.00;99886.81;104937;1264;74419;-63
2023/02/02 06:51:35;;;;;;;28.50;13.20;;;;;;;-0.80;100.00;99892.13;104941;1264;60625;-66
2023/02/02 06:54:04;;;;;;;19.60;12.10;;;;;;;-0.71;100.00;99892.94;105311;1264;60347;-67
2023/02/02 06:56:33;;;;;;;23.70;13.40;;;;;;;-0.63;100.00;99888.95;105268;1263;75570;-64
2023/02/02 06:59:02;;;;;;;21.80;12.30;;;;;;;-0.59;100.00;99891.48;105193;1261;68704;-64
2023/02/02 07:01:31;;;;;;;20.90;11.90;;;;;;;-0.52;100.00;99887.05;105409;1264;74236;-64
2023/02/02 07:04:00;;;;;;;21.10;12.50;;;;;;;-0.47;100.00;99882.39;105149;1262;60547;-65
2023/02/02 07:06:29;;;;;;;23.40;13.90;;;;;;;-0.44;100.00;99879.24;105493;1261;60475;-65
2023/02/02 07:08:57;;;;;;;25.10;13.50;;;;;;;-0.39;100.00;99880.71;105200;1261;75378;-65
2023/02/02 07:11:31;;;;;;;21.00;11.00;;;;;;;-0.34;100.00;99878.94;105127;1264;68600;-65
2023/02/02 07:14:05;;;;;;;20.60;11.50;;;;;;;-0.32;100.00;99875.52;105136;1264;74355;-66
2023/02/02 07:16:34;;;;;;;20.60;12.60;;;;;;;-0.27;100.00;99878.06;105025;1261;60855;-66
2023/02/02 07:19:03;;;;;;;29.00;15.00;;;;;;;-0.24;100.00;99873.88;105470;1260;61855;-67
2023/02/02 07:21:34;;;;;;;21.70;12.50;;;;;;;-0.24;100.00;99872.17;104579;1264;491067;-67
2023/02/02 07:24:04;;;;;;;20.70;12.20;;;;;;;-0.29;100.00;99873.09;105232;1264;68099;-65
2023/02/02 07:26:34;;;;;;;19.40;11.70;;;;;;;-0.28;100.00;99871.83;105243;1261;73535;-66
2023/02/02 07:29:03;;;;;;;21.60;12.40;;;;;;;-0.28;100.00;99869.36;105416;1261;61175;-68
2023/02/02 07:31:33;;;;;;;20.80;10.40;;;;;;;-0.27;100.00;99871.23;105279;1262;61822;-67
2023/02/02 07:34:04;;;;;;;21.00;11.60;;;;;;;-0.29;100.00;99873.77;105282;1264;75285;-66
2023/02/02 07:36:32;;;;;;;21.40;10.90;;;;;;;-0.27;100.00;99874.98;105156;1260;69054;-65
2023/02/02 07:39:03;;;;;;;21.00;11.00;;;;;;;-0.25;100.00;99875.30;104981;1261;73201;-67
2023/02/02 07:41:35;;;;;;;22.10;11.80;;;;;;;-0.18;100.00;99874.98;104750;1262;62701;-67
2023/02/02 07:44:04;;;;;;;18.20;10.40;;;;;;;-0.06;100.00;99875.54;104779;1264;60799;-65
2023/02/02 07:46:34;;;;;;;17.10;10.20;;;;;;;0.06;100.00;99870.42;104717;1262;75877;-64
2023/02/02 07:49:05;;;;;;;17.60;10.40;;;;;;;0.13;100.00;99869.36;104905;1266;67140;-65
2023/02/02 07:51:34;;;;;;;17.20;9.00;;;;;;;0.20;100.00;99866.21;104771;1263;73233;-66
2023/02/02 07:54:06;;;;;;;18.40;10.50;;;;;;;0.24;100.00;99868.94;104699;1262;62187;-66
2023/02/02 07:56:36;;;;;;;18.00;9.60;;;;;;;0.26;100.00;99869.98;104835;1262;61578;-65
2023/02/02 07:59:05;;;;;;;13.40;8.20;;;;;;;0.32;100.00;99870.55;104858;1262;75299;-65
2023/02/02 08:01:33;;;;;;;16.80;10.20;;;;;;;0.40;100.00;99869.86;105129;1262;68239;-67
2023/02/02 08:04:03;;;;;;;17.30;10.40;;;;;;;0.51;100.00;99870.48;105005;1262;74575;-66
2023/02/02 08:06:34;;;;;;;17.60;9.90;;;;;;;0.65;100.00;99873.03;104924;1264;62752;-68
2023/02/02 08:09:06;;;;;;;21.50;10.30;;;;;;;0.77;100.00;99871.92;104720;1264;60521;-69
2023/02/02 08:11:35;;;;;;;16.90;9.60;;;;;;;0.84;100.00;99874.54;104810;1265;74265;-69
2023/02/02 08:14:05;;;;;;;21.20;10.90;;;;;;;0.88;100.00;99872.86;104655;1264;67565;-66
2023/02/02 08:16:33;;;;;;;21.30;10.50;;;;;;;0.86;100.00;99877.46;105036;1264;72904;-67
2023/02/02 08:19:02;;;;;;;21.80;10.40;;;;;;;0.83;100.00;99882.55;104847;1262;62303;-62
2023/02/02 08:21:33;;;;;;;18.80;9.80;;;;;;;0.75;100.00;99883.83;105221;1262;61902;-67
2023/02/02 08:24:03;;;;;;;22.90;11.40;;;;;;;0.71;100.00;99884.17;104873;1261;74031;-63
2023/02/02 08:26:34;;;;;;;23.50;10.50;;;;;;;0.69;100.00;99883.30;104941;1262;67911;-64
2023/02/02 08:29:05;;;;;;;19.10;10.80;;;;;;;0.70;100.00;99881.38;104768;1261;73610;-63
2023/02/02 08:31:40;;;;;;;21.10;9.90;;;;;;;0.72;100.00;99879.88;104626;1262;62748;-65
2023/02/02 08:34:09;;;;;;;20.80;11.50;;;;;;;0.68;100.00;99879.30;104640;1266;60372;-63
2023/02/02 08:36:38;;;;;;;19.50;11.50;;;;;;;0.66;100.00;99880.84;104840;1261;75536;-63
2023/02/02 08:39:10;;;;;;;;;;;;;;;0.69;100.00;99884.04;104686;1262;68658;-62
2023/02/02 08:41:39;;;;;;;18.70;9.50;;;;;;;0.70;100.00;99881.39;105007;1265;74438;-66
2023/02/02 08:44:09;;;;;;;17.60;10.30;;;;;;;0.68;100.00;99878.23;104917;1264;61472;-63
2023/02/02 08:46:39;;;;;;;20.70;11.60;;;;;;;0.66;100.00;99871.48;104830;1262;61280;-63
2023/02/02 08:49:10;;;;;;;18.30;10.70;;;;;;;0.60;100.00;99873.12;104693;1262;75455;-65
2023/02/02 08:51:39;;;;;;;20.70;10.80;;;;;;;0.55;100.00;99866.90;104914;1261;67514;-65
2023/02/02 08:54:08;;;;;;;18.20;10.70;;;;;;;0.48;100.00;99868.53;104679;1262;74361;-64
2023/02/02 08:56:37;;;;;;;16.00;10.30;;;;;;;0.43;100.00;99869.94;104874;1267;60448;-62
2023/02/02 08:59:06;;;;;;;13.70;9.10;;;;;;;0.40;100.00;99871.08;104822;1261;60804;-62
2023/02/02 09:01:35;;;;;;;16.90;9.50;;;;;;;0.35;100.00;99871.29;105121;1262;75763;-65
2023/02/02 09:04:06;;;;;;;15.40;9.30;;;;;;;0.34;100.00;99870.55;104809;1264;67569;-63
2023/02/02 09:06:39;;;;;;;18.50;9.90;;;;;;;0.34;100.00;99870.20;104920;1261;72872;-61
2023/02/02 09:09:11;;;;;;;14.50;9.00;;;;;;;0.31;100.00;99865.52;104827;1268;60567;-62
2023/02/02 09:11:41;;;;;;;14.80;9.10;;;;;;;0.31;100.00;99863.29;104809;1263;61908;-65
2023/02/02 09:14:12;;;;;;;14.70;9.50;;;;;;;0.30;100.00;99861.14;104834;1262;73963;-63
2023/02/02 09:16:41;;;;;;;15.40;9.10;;;;;;;0.32;100.00;99861.48;104811;1264;67361;-61
2023/02/02 09:19:10;;;;;;;14.00;8.70;;;;;;;0.33;100.00;99861.56;104950;1262;74223;-63
2023/02/02 09:21:39;;;;;;;15.00;9.90;;;;;;;0.32;100.00;99858.92;105349;1264;61136;-65
2023/02/02 09:24:09;;;;;;;13.60;8.50;;;;;;;0.30;100.00;99858.05;104837;1261;60423;-61
2023/02/02 09:26:39;;;;;;;14.70;9.50;;;;;;;0.29;100.00;99861.35;104818;1262;74341;-63
2023/02/02 09:29:10;;;;;;;15.70;10.20;;;;;;;0.28;100.00;99862.17;104745;1262;67278;-64
2023/02/02 09:31:39;;;;;;;;;;;;;;;0.26;100.00;99858.40;105031;1262;72948;-65
2023/02/02 09:34:10;;;;;;;16.10;10.10;;;;;;;0.23;100.00;99858.42;104827;1262;63181;-63
2023/02/02 09:36:38;;;;;;;14.90;9.10;;;;;;;0.21;100.00;99857.70;104706;1264;62256;-63
2023/02/02 09:39:08;;;;;;;13.00;7.80;;;;;;;0.19;100.00;99856.88;104779;1262;75738;-63
2023/02/02 09:41:37;;;;;;;14.70;9.20;;;;;;;0.18;100.00;99859.73;105185;1262;68352;-65
2023/02/02 09:44:27;;;;;;;13.50;8.60;;;;;;;0.19;100.00;99861.32;105117;1264;74242;-63
2023/02/02 09:47:08;;;;;;;13.70;8.40;;;;;;;0.20;100.00;99857.00;105187;1264;61716;-62
2023/02/02 09:49:56;;;;;;;14.60;9.00;;;;;;;0.18;100.00;99855.71;104778;1261;60360;-63
2023/02/02 09:52:26;;;;;;;16.50;9.80;;;;;;;0.19;100.00;99856.86;104860;1262;75501;-63
2023/02/02 09:55:21;;;;;;;15.70;10.10;;;;;;;0.20;100.00;99860.08;108464;1261;67328;-64
2023/02/02 09:57:53;;;;;;;16.20;9.60;;;;;;;0.22;100.00;99854.55;108620;1261;73233;-64
2023/02/02 10:00:32;;;;;;;14.70;9.20;;;;;;;0.28;100.00;99852.41;108463;1261;63086;-66
2023/02/02 10:03:06;;;;;;;12.50;8.20;;;;;;;0.36;100.00;99849.85;108641;1261;60864;-64
2023/02/02 10:06:17;;;;;;;16.70;9.40;;;;;;;0.45;100.00;99852.54;106065;1267;75265;-64
2023/02/02 10:08:49;;;;;;;14.40;9.30;;;;;;;0.55;100.00;99853.42;105223;1262;67658;-63
2023/02/02 10:11:17;;;;;;;14.10;9.50;;;;;;;0.62;100.00;99854.18;105185;1262;73136;-64
2023/02/02 10:13:47;;;;;;;16.60;9.80;;;;;;;0.69;100.00;99853.59;105160;1262;60805;-65
2023/02/02 10:16:16;;;;;;;12.80;8.50;;;;;;;0.73;100.00;99853.07;105151;1264;60588;-63
2023/02/02 10:18:54;;;;;;;15.00;9.80;;;;;;;0.76;100.00;99852.01;105082;1265;75402;-63
2023/02/02 10:21:43;;;;;;;14.10;8.00;;;;;;;0.75;100.00;99849.30;105137;1261;68653;-64
2023/02/02 10:24:25;;;;;;;11.50;7.90;;;;;;;0.76;100.00;99847.52;104867;1262;74299;-62
2023/02/02 10:27:03;;;;;;;12.90;8.60;;;;;;;0.77;100.00;99844.23;105035;1262;62373;-62
2023/02/02 10:29:37;;;;;;;12.80;9.10;;;;;;;0.76;100.00;99841.39;105189;1264;60882;-63
2023/02/02 10:32:24;;;;;;;13.50;9.00;;;;;;;0.77;100.00;99842.52;105351;1264;75526;-66
2023/02/02 10:35:15;;;;;;;14.00;9.20;;;;;;;0.79;100.00;99843.84;105067;1265;67635;-63
2023/02/02 10:37:55;;;;;;;13.70;8.60;;;;;;;0.81;100.00;99838.78;105545;1262;73575;-64
2023/02/02 10:40:37;;;;;;;13.10;8.70;;;;;;;0.82;100.00;99835.94;105376;1262;61049;-65
2023/02/02 10:46:16;;;;;;;14.10;9.10;;;;;;;0.82;100.00;99835.94;105315;1261;74394;-63
2023/02/02 10:48:46;;;;;;;13.80;8.90;;;;;;;0.83;100.00;99834.79;105249;1262;68247;-65
2023/02/02 10:51:24;;;;;;;14.00;9.20;;;;;;;0.86;100.00;99834.38;105017;1262;73810;-62
2023/02/02 10:53:57;;;;;;;20.70;14.50;;;;;;;0.90;100.00;99834.20;105071;1262;60568;-62
2023/02/02 10:56:35;;;;;;;16.50;11.50;;;;;;;0.96;100.00;99834.36;105017;1262;62080;-62
2023/02/02 10:59:06;;;;;;;14.90;9.90;;;;;;;1.02;100.00;99836.72;105170;1262;74329;-61
2023/02/02 11:01:34;;;;;;;17.10;10.90;;;;;;;1.08;100.00;99837.45;104973;1264;67358;-61
2023/02/02 11:07:09;;;;;;;14.40;9.50;;;;;;;1.20;100.00;99833.94;105068;1263;60388;-60
2023/02/02 11:09:39;;;;;;;14.40;8.90;;;;;;;1.28;100.00;99832.09;105494;1262;60651;-60
2023/02/02 11:12:30;;;;;;;15.00;9.20;;;;;;;1.35;100.00;99833.23;105036;1264;74597;-61
2023/02/02 11:15:03;;;;;;;13.40;8.90;;;;;;;1.37;100.00;99834.23;104990;1266;68966;-62
2023/02/02 11:17:34;;;;;;;11.50;8.20;;;;;;;1.40;100.00;99839.06;105088;1261;73861;-60
2023/02/02 11:20:20;;;;;;;11.30;8.00;;;;;;;1.43;100.00;99838.36;105131;1261;60550;-63
2023/02/02 11:22:49;;;;;;;13.10;7.90;;;;;;;1.48;100.00;99838.05;104962;1262;61730;-65
2023/02/02 11:25:32;;;;;;;14.20;9.80;;;;;;;1.51;100.00;99838.14;104815;1262;73725;-61
2023/02/02 11:28:10;;;;;;;13.70;8.70;;;;;;;1.52;100.00;99838.58;104964;1262;68652;-64
2023/02/02 11:30:38;;;;;;;10.60;7.10;;;;;;;1.52;100.00;99838.35;105043;1265;73214;-61
2023/02/02 11:33:27;;;;;;;12.30;8.20;;;;;;;1.51;100.00;99837.52;105138;1264;61321;-61
2023/02/02 11:36:00;;;;;;;10.10;7.20;;;;;;;1.49;100.00;99842.98;104931;1262;60911;-62
2023/02/02 11:38:29;;;;;;;11.40;7.10;;;;;;;1.49;100.00;99839.41;104822;1266;74327;-63
2023/02/02 11:41:03;;;;;;;9.50;6.70;;;;;;;1.47;100.00;99839.66;105106;1264;66888;-62
2023/02/02 11:43:40;;;;;;;9.90;6.60;;;;;;;1.49;100.00;99839.67;104842;1263;73261;-62
2023/02/02 11:46:27;;;;;;;10.10;7.10;;;;;;;1.52;100.00;99841.45;105020;1265;60452;-59
2023/02/02 11:49:11;;;;;;;10.80;7.20;;;;;;;1.58;100.00;99841.48;105093;1263;60976;-60